createdAt,value
2019-02-08T00:01:30.314Z,5.93
2019-02-08T00:03:58.164Z,4.43
2019-02-08T00:06:31.020Z,5.93
2019-02-08T00:08:58.667Z,5.23
2019-02-08T00:11:26.387Z,5.43
2019-02-08T00:13:54.003Z,5.53
2019-02-08T00:16:22.181Z,5.17
2019-02-08T00:18:51.769Z,3.50
2019-02-08T00:21:19.331Z,4.80
2019-02-08T00:23:46.950Z,6.90
2019-02-08T00:26:14.592Z,6.50
2019-02-08T00:28:43.653Z,5.43
2019-02-08T00:31:11.643Z,5.47
2019-02-08T00:33:41.374Z,7.83
2019-02-08T00:36:09.062Z,6.17
2019-02-08T00:39:13.076Z,5.60
2019-02-08T00:41:40.708Z,5.53
2019-02-08T00:44:11.752Z,6.37
2019-02-08T00:46:42.424Z,6.80
2019-02-08T00:49:10.019Z,6.23
2019-02-08T00:51:37.933Z,7.17
2019-02-08T00:54:07.732Z,5.60
2019-02-08T00:57:14.840Z,7.03
2019-02-08T00:59:42.428Z,6.50
2019-02-08T01:02:10.284Z,8.03
2019-02-08T01:04:37.859Z,7.63
2019-02-08T01:07:05.550Z,2.90
2019-02-08T01:09:33.723Z,7.37
2019-02-08T01:12:01.351Z,8.87
2019-02-08T01:14:28.984Z,6.40
2019-02-08T01:16:56.572Z,6.23
2019-02-08T01:19:24.223Z,6.93
2019-02-08T01:21:51.768Z,5.27
2019-02-08T01:24:19.347Z,8.13
2019-02-08T01:26:56.277Z,9.43
2019-02-08T01:29:23.957Z,6.10
2019-02-08T01:31:54.542Z,6.50
2019-02-08T01:34:22.116Z,5.87
2019-02-08T01:37:03.196Z,5.53
2019-02-08T01:39:30.919Z,9.30
2019-02-08T01:41:58.503Z,6.60
2019-02-08T01:44:26.298Z,5.03
2019-02-08T01:47:01.616Z,5.97
2019-02-08T01:49:29.270Z,6.20
2019-02-08T01:51:56.889Z,4.50
2019-02-08T01:54:24.556Z,7.17
2019-02-08T01:56:52.123Z,7.27
2019-02-08T01:59:19.785Z,8.13
2019-02-08T02:01:47.894Z,7.20
2019-02-08T02:04:15.574Z,7.33
2019-02-08T02:06:45.385Z,9.33
2019-02-08T02:09:13.153Z,5.13
2019-02-08T02:11:40.771Z,5.73
2019-02-08T02:14:08.368Z,7.63
2019-02-08T02:16:38.167Z,7.87
2019-02-08T02:19:05.926Z,4.83
2019-02-08T02:21:34.025Z,4.60
2019-02-08T02:24:01.642Z,7.13
2019-02-08T02:26:29.575Z,5.53
2019-02-08T02:28:57.168Z,8.00
2019-02-08T02:31:24.729Z,4.50
2019-02-08T02:33:52.310Z,7.63
2019-02-08T02:36:19.878Z,6.00
2019-02-08T02:38:59.474Z,7.60
2019-02-08T02:41:27.098Z,4.43
2019-02-08T02:43:54.797Z,6.50
2019-02-08T02:46:22.423Z,6.40
2019-02-08T02:48:50.242Z,7.83
2019-02-08T02:51:17.933Z,7.90
2019-02-08T02:53:45.537Z,6.40
2019-02-08T02:56:13.125Z,6.13
2019-02-08T02:59:06.455Z,6.73
2019-02-08T03:01:34.066Z,6.43
2019-02-08T03:04:01.742Z,8.97
2019-02-08T03:06:29.502Z,5.87
2019-02-08T03:08:57.161Z,7.87
2019-02-08T03:11:33.471Z,7.17
2019-02-08T03:14:01.073Z,6.67
2019-02-08T03:16:40.949Z,8.97
2019-02-08T03:19:08.575Z,7.47
2019-02-08T03:21:36.210Z,9.50
2019-02-08T03:24:12.959Z,6.67
2019-02-08T03:26:40.409Z,5.97
2019-02-08T03:29:08.120Z,10.37
2019-02-08T03:31:35.789Z,8.83
2019-02-08T03:34:03.900Z,11.03
2019-02-08T03:36:40.857Z,10.47
2019-02-08T03:39:09.734Z,7.13
2019-02-08T03:41:37.326Z,8.03
2019-02-08T03:44:05.175Z,8.53
2019-02-08T03:46:47.872Z,9.40
2019-02-08T03:49:15.535Z,10.17
2019-02-08T03:51:43.217Z,10.20
2019-02-08T03:54:10.908Z,9.43
2019-02-08T03:56:46.768Z,9.60
2019-02-08T03:59:14.363Z,13.87
2019-02-08T04:01:42.043Z,7.47
2019-02-08T04:04:14.811Z,9.50
2019-02-08T04:06:51.915Z,8.77
2019-02-08T04:09:19.652Z,11.67
2019-02-08T04:11:47.257Z,10.70
2019-02-08T04:14:16.248Z,6.10
2019-02-08T04:17:16.393Z,7.53
2019-02-08T04:19:43.997Z,9.07
2019-02-08T04:22:11.620Z,7.43
2019-02-08T04:24:39.328Z,8.53
2019-02-08T04:27:12.198Z,9.80
2019-02-08T04:29:39.804Z,12.60
2019-02-08T04:32:07.519Z,7.07
2019-02-08T04:34:35.122Z,7.80
2019-02-08T04:37:09.916Z,9.60
2019-02-08T04:39:39.416Z,7.20
2019-02-08T04:42:07.005Z,7.17
2019-02-08T04:44:34.677Z,8.70
2019-02-08T04:47:02.409Z,7.23
2019-02-08T04:49:30.086Z,10.43
2019-02-08T04:51:57.700Z,10.43
2019-02-08T04:54:25.447Z,11.37
2019-02-08T04:56:54.359Z,10.07
2019-02-08T04:59:27.077Z,10.57
2019-02-08T05:01:54.773Z,12.00
2019-02-08T05:04:22.597Z,8.67
2019-02-08T05:06:56.650Z,9.37
2019-02-08T05:09:24.532Z,7.23
2019-02-08T05:11:52.194Z,11.50
2019-02-08T05:14:20.848Z,8.77
2019-02-08T05:16:54.221Z,12.73
2019-02-08T05:19:22.045Z,10.00
2019-02-08T05:21:51.616Z,10.73
2019-02-08T05:24:19.400Z,11.97
2019-02-08T05:26:54.894Z,11.53
2019-02-08T05:29:22.840Z,9.30
2019-02-08T05:31:54.215Z,11.10
2019-02-08T05:34:23.754Z,11.33
2019-02-08T05:37:45.649Z,12.30
2019-02-08T05:40:13.763Z,9.37
2019-02-08T05:42:42.939Z,11.77
2019-02-08T05:45:12.199Z,12.80
2019-02-08T05:47:44.775Z,9.50
2019-02-08T05:50:19.709Z,13.03
2019-02-08T05:52:51.713Z,11.63
2019-02-08T05:55:26.793Z,12.53
2019-02-08T05:58:21.156Z,8.50
2019-02-08T06:00:51.606Z,9.07
2019-02-08T06:03:24.235Z,9.73
2019-02-08T06:06:10.229Z,9.27
2019-02-08T06:08:43.365Z,11.80
2019-02-08T06:11:13.939Z,8.70
2019-02-08T06:13:43.597Z,7.27
2019-02-08T06:16:11.831Z,8.07
2019-02-08T06:19:06.882Z,7.23
2019-02-08T06:21:34.611Z,8.60
2019-02-08T06:24:05.439Z,8.70
2019-02-08T06:30:04.145Z,8.33
2019-02-08T06:32:31.817Z,9.17
2019-02-08T06:34:59.503Z,10.30
2019-02-08T06:37:57.604Z,10.33
2019-02-08T06:40:25.450Z,8.83
2019-02-08T06:42:54.790Z,17.73
2019-02-08T06:45:25.663Z,13.93
2019-02-08T06:48:02.076Z,10.37
2019-02-08T06:50:32.270Z,10.50
2019-02-08T06:53:00.188Z,7.47
2019-02-08T06:55:33.820Z,10.47
2019-02-08T06:58:32.884Z,8.60
2019-02-08T07:01:32.470Z,6.53
2019-02-08T07:04:25.186Z,7.40
2019-02-08T07:07:39.574Z,8.17
2019-02-08T07:10:41.513Z,8.80
2019-02-08T07:13:25.664Z,5.53
2019-02-08T07:16:14.296Z,8.13
2019-02-08T07:19:07.904Z,8.93
2019-02-08T07:21:41.009Z,6.93
2019-02-08T07:24:30.312Z,6.17
2019-02-08T07:27:39.628Z,8.10
2019-02-08T07:30:29.145Z,7.60
2019-02-08T07:33:16.460Z,7.83
2019-02-08T07:36:03.785Z,7.37
2019-02-08T07:38:51.410Z,8.27
2019-02-08T07:41:48.157Z,5.53
2019-02-08T07:44:42.299Z,7.97
2019-02-08T07:47:44.151Z,8.13
2019-02-08T07:50:29.690Z,8.97
2019-02-08T07:53:23.236Z,10.30
2019-02-08T07:55:55.950Z,7.87
2019-02-08T07:59:01.213Z,8.60
2019-02-08T08:01:47.043Z,7.73
2019-02-08T08:04:24.186Z,7.53
2019-02-08T08:07:14.624Z,11.00
2019-02-08T08:10:03.466Z,8.03
2019-02-08T08:13:09.557Z,9.13
2019-02-08T08:15:56.435Z,7.97
2019-02-08T08:18:43.866Z,8.13
2019-02-08T08:21:33.768Z,4.70
2019-02-08T08:24:36.778Z,6.10
2019-02-08T08:27:17.270Z,4.90
2019-02-08T08:30:10.484Z,6.17
2019-02-08T08:32:48.681Z,3.90
2019-02-08T08:36:08.309Z,7.00
2019-02-08T08:39:20.122Z,5.60
2019-02-08T08:42:25.526Z,3.63
2019-02-08T08:45:34.950Z,4.17
2019-02-08T08:48:44.320Z,3.90
2019-02-08T08:51:37.703Z,7.10
2019-02-08T08:54:59.254Z,3.40
2019-02-08T09:01:19.324Z,4.10
2019-02-08T09:04:25.964Z,4.13
2019-02-08T09:07:47.218Z,4.17
2019-02-08T09:11:11.868Z,2.90
2019-02-08T09:13:56.579Z,5.17
2019-02-08T09:17:05.398Z,3.97
2019-02-08T09:20:35.756Z,4.27
2019-02-08T09:23:43.748Z,3.10
2019-02-08T09:26:45.472Z,4.50
2019-02-08T09:29:37.559Z,4.47
2019-02-08T09:33:02.081Z,5.87
2019-02-08T09:36:23.870Z,3.93
2019-02-08T09:39:40.925Z,4.40
2019-02-08T09:42:52.132Z,4.73
2019-02-08T09:45:53.015Z,3.13
2019-02-08T09:49:11.775Z,3.13
2019-02-08T09:52:29.157Z,5.57
2019-02-08T09:55:37.085Z,3.80
2019-02-08T09:58:42.216Z,2.13
2019-02-08T10:01:53.640Z,4.40
2019-02-08T10:05:03.473Z,4.07
2019-02-08T10:08:03.387Z,5.03
2019-02-08T10:11:08.512Z,3.80
2019-02-08T10:14:39.068Z,4.87
2019-02-08T10:17:37.365Z,4.77
2019-02-08T10:21:01.888Z,3.40
2019-02-08T10:27:23.132Z,3.37
2019-02-08T10:30:16.036Z,5.00
2019-02-08T10:33:20.358Z,5.60
2019-02-08T10:36:26.888Z,4.30
2019-02-08T10:39:37.788Z,5.47
2019-02-08T10:42:51.552Z,4.07
2019-02-08T10:46:17.495Z,5.63
2019-02-08T10:49:28.461Z,5.10
2019-02-08T10:52:26.255Z,6.80
2019-02-08T10:55:30.426Z,5.17
2019-02-08T10:58:40.648Z,7.03
2019-02-08T11:01:43.379Z,5.77
2019-02-08T11:04:57.571Z,6.40
2019-02-08T11:08:13.051Z,7.77
2019-02-08T11:11:24.056Z,4.97
2019-02-08T11:14:34.980Z,5.93
2019-02-08T11:17:54.590Z,5.73
2019-02-08T11:20:22.326Z,6.13
2019-02-08T11:22:53.154Z,5.90
2019-02-08T11:25:33.758Z,10.43
2019-02-08T11:28:22.851Z,7.80
2019-02-08T11:35:24.892Z,8.70
2019-02-08T11:42:07.948Z,7.13
2019-02-08T11:45:06.374Z,10.10
2019-02-08T11:51:41.312Z,6.90
2019-02-08T11:58:04.068Z,5.93
2019-02-08T12:01:08.840Z,8.13
2019-02-08T12:04:17.902Z,7.27
2019-02-08T12:07:26.696Z,6.50
2019-02-08T12:10:26.606Z,8.53
2019-02-08T12:17:06.120Z,9.73
2019-02-08T12:19:42.400Z,7.90
2019-02-08T12:22:14.670Z,5.80
2019-02-08T12:24:44.054Z,8.03
2019-02-08T12:27:42.656Z,7.13
2019-02-08T12:30:21.194Z,9.10
2019-02-08T12:32:53.099Z,6.70
2019-02-08T12:35:23.417Z,6.33
2019-02-08T12:44:29.799Z,7.03
2019-02-08T12:48:07.535Z,12.73
2019-02-08T12:50:37.567Z,9.43
2019-02-08T12:53:12.911Z,10.90
2019-02-08T12:55:49.103Z,8.03
2019-02-08T12:59:23.719Z,6.93
2019-02-08T13:01:55.401Z,5.53
2019-02-08T13:04:37.729Z,8.83
2019-02-08T13:07:25.328Z,7.80
2019-02-08T13:09:59.806Z,7.23
2019-02-08T13:12:33.043Z,8.57
2019-02-08T13:15:07.477Z,8.37
2019-02-08T13:21:12.479Z,6.90
2019-02-08T13:23:48.245Z,6.43
2019-02-08T13:26:23.777Z,6.03
2019-02-08T13:28:55.663Z,6.20
2019-02-08T13:31:32.010Z,4.20
2019-02-08T13:34:03.367Z,6.80
2019-02-08T13:37:08.817Z,5.90
2019-02-08T13:39:39.809Z,7.27
2019-02-08T13:42:13.451Z,7.50
2019-02-08T13:44:47.851Z,5.20
2019-02-08T13:47:47.731Z,5.27
2019-02-08T13:50:21.251Z,7.70
2019-02-08T13:52:50.099Z,7.40
2019-02-08T13:55:19.061Z,6.83
2019-02-08T13:58:18.395Z,4.87
2019-02-08T14:00:58.246Z,6.20
2019-02-08T14:03:27.719Z,5.57
2019-02-08T14:06:04.423Z,6.17
2019-02-08T14:08:45.947Z,5.13
2019-02-08T14:11:14.285Z,7.27
2019-02-08T14:13:42.296Z,5.93
2019-02-08T14:16:14.163Z,8.07
2019-02-08T14:19:36.796Z,6.63
2019-02-08T14:22:04.694Z,9.17
2019-02-08T14:24:33.006Z,7.80
2019-02-08T14:27:15.026Z,6.87
2019-02-08T14:29:42.625Z,7.63
2019-02-08T14:32:10.136Z,6.53
2019-02-08T14:41:56.932Z,5.17
2019-02-08T14:44:46.559Z,7.87
2019-02-08T14:50:51.194Z,5.33
2019-02-08T14:53:41.506Z,4.80
2019-02-08T14:56:38.138Z,3.20
2019-02-08T14:59:14.637Z,7.53
2019-02-08T15:01:50.564Z,4.50
2019-02-08T15:04:36.249Z,4.87
2019-02-08T15:10:56.375Z,6.10
2019-02-08T15:13:45.484Z,8.00
2019-02-08T15:16:22.658Z,7.13
2019-02-08T15:18:58.494Z,6.77
2019-02-08T15:21:41.813Z,5.27
2019-02-08T15:24:24.955Z,7.67
2019-02-08T15:27:04.110Z,4.53
2019-02-08T15:29:42.914Z,5.37
2019-02-08T15:32:30.324Z,3.77
2019-02-08T15:35:11.273Z,5.70
2019-02-08T15:41:22.718Z,3.90
2019-02-08T15:43:57.095Z,4.93
2019-02-08T15:46:35.788Z,4.83
2019-02-08T15:49:14.466Z,4.90
2019-02-08T15:51:55.190Z,3.83
2019-02-08T16:00:57.321Z,3.40
2019-02-08T16:03:47.128Z,3.83
2019-02-08T16:06:33.034Z,7.27
2019-02-08T16:09:07.538Z,4.10
2019-02-08T16:11:47.790Z,4.00
2019-02-08T16:14:19.994Z,4.77
2019-02-08T16:24:42.843Z,4.67
2019-02-08T16:34:48.605Z,4.63
2019-02-08T16:50:44.775Z,8.70
2019-02-08T16:53:53.087Z,7.83
2019-02-08T17:00:28.140Z,6.07
2019-02-08T17:03:16.814Z,5.57
2019-02-08T17:06:00.017Z,6.30
2019-02-08T17:09:43.980Z,6.73
2019-02-08T17:12:01.128Z,4.93
2019-02-08T17:15:02.282Z,3.50
2019-02-08T17:17:55.241Z,5.03
2019-02-08T17:20:36.885Z,7.03
2019-02-08T17:23:04.693Z,5.17
2019-02-08T17:25:35.950Z,6.03
2019-02-08T17:28:51.194Z,6.87
2019-02-08T17:31:18.958Z,6.03
2019-02-08T17:33:46.513Z,6.67
2019-02-08T17:36:19.002Z,8.43
2019-02-08T17:38:59.676Z,4.83
2019-02-08T17:41:27.491Z,5.10
2019-02-08T17:43:55.633Z,6.73
2019-02-08T17:46:23.225Z,5.37
2019-02-08T17:48:54.211Z,6.40
2019-02-08T17:51:25.875Z,5.00
2019-02-08T17:54:02.816Z,4.87
2019-02-08T17:56:40.507Z,4.33
2019-02-08T17:59:26.558Z,5.87
2019-02-08T18:01:55.718Z,4.10
2019-02-08T18:04:23.492Z,3.70
2019-02-08T18:07:00.718Z,4.70
2019-02-08T18:09:30.798Z,9.10
2019-02-08T18:11:58.630Z,5.83
2019-02-08T18:14:30.928Z,4.57
2019-02-08T18:16:58.717Z,3.10
2019-02-08T18:19:26.335Z,4.97
2019-02-08T18:21:53.916Z,4.60
2019-02-08T18:24:21.652Z,3.27
2019-02-08T18:26:49.377Z,5.00
2019-02-08T18:29:44.860Z,1.87
2019-02-08T18:32:13.952Z,5.07
2019-02-08T18:34:42.972Z,5.27
2019-02-08T18:37:28.936Z,4.67
2019-02-08T18:40:13.084Z,4.80
2019-02-08T18:43:20.578Z,4.13
2019-02-08T18:46:30.251Z,6.30
2019-02-08T18:49:05.760Z,7.07
2019-02-08T18:51:36.391Z,5.27
2019-02-08T18:54:04.671Z,6.03
2019-02-08T18:56:32.398Z,9.20
2019-02-08T18:58:59.999Z,5.17
2019-02-08T19:01:27.972Z,5.13
2019-02-08T19:03:58.848Z,7.03
2019-02-08T19:06:29.088Z,5.50
2019-02-08T19:08:56.762Z,6.50
2019-02-08T19:11:24.739Z,4.43
2019-02-08T19:13:58.484Z,6.63
2019-02-08T19:16:29.323Z,6.77
2019-02-08T19:19:42.759Z,5.67
2019-02-08T19:22:22.555Z,6.33
2019-02-08T19:25:27.856Z,2.80
2019-02-08T19:28:25.941Z,6.17
2019-02-08T19:31:08.079Z,6.93
2019-02-08T19:33:43.095Z,7.27
2019-02-08T19:40:47.139Z,4.13
2019-02-08T19:50:51.989Z,4.73
2019-02-08T19:53:37.571Z,4.93
2019-02-08T19:56:13.622Z,6.63
2019-02-08T19:58:57.260Z,6.60
2019-02-08T20:01:32.891Z,4.63
2019-02-08T20:04:05.349Z,5.40
2019-02-08T20:06:55.330Z,5.50
2019-02-08T20:09:45.065Z,4.23
2019-02-08T20:16:15.766Z,4.20
2019-02-08T20:18:45.877Z,6.47
2019-02-08T20:21:51.396Z,3.57
2019-02-08T20:24:41.411Z,5.70
2019-02-08T20:27:26.611Z,5.07
2019-02-08T20:29:51.938Z,5.93
2019-02-08T20:32:49.811Z,6.13
2019-02-08T20:36:17.507Z,7.10
2019-02-08T20:39:07.785Z,6.87
2019-02-08T20:42:12.163Z,4.97
2019-02-08T20:44:23.575Z,5.60
2019-02-08T20:47:24.402Z,6.20
2019-02-08T20:50:24.294Z,8.03
2019-02-08T20:53:03.132Z,7.57
2019-02-08T20:55:34.762Z,5.27
2019-02-08T20:58:49.834Z,5.47
2019-02-08T21:01:49.159Z,4.07
2019-02-08T21:05:17.454Z,8.20
2019-02-08T21:15:18.278Z,6.60
2019-02-08T21:18:49.097Z,6.30
2019-02-08T21:22:24.526Z,6.87
2019-02-08T21:25:51.793Z,7.13
2019-02-08T21:28:36.693Z,7.50
2019-02-08T21:40:47.976Z,8.80
2019-02-08T21:43:44.556Z,4.90
2019-02-08T21:46:14.943Z,5.13
2019-02-08T21:58:35.786Z,4.00
2019-02-08T22:01:10.870Z,6.37
2019-02-08T22:04:00.586Z,4.10
2019-02-08T22:07:05.717Z,6.47
2019-02-08T22:09:43.565Z,2.83
2019-02-08T22:15:54.642Z,7.23
2019-02-08T22:19:17.438Z,6.37
2019-02-08T22:29:14.174Z,3.97
2019-02-08T22:31:54.851Z,3.00
2019-02-08T22:35:13.577Z,3.93
2019-02-08T22:37:57.622Z,6.03
2019-02-08T22:40:44.952Z,3.67
2019-02-08T22:43:19.263Z,5.70
2019-02-08T22:45:50.905Z,3.97
2019-02-08T22:48:32.307Z,3.77
2019-02-08T23:08:41.809Z,3.63
2019-02-08T23:11:12.352Z,3.23
2019-02-08T23:13:40.455Z,3.53
2019-02-08T23:16:09.629Z,5.10
2019-02-08T23:19:20.357Z,4.50
2019-02-08T23:22:02.836Z,2.87
2019-02-08T23:24:43.277Z,3.93
2019-02-08T23:27:13.871Z,3.63
2019-02-08T23:29:41.767Z,3.43
2019-02-08T23:32:09.797Z,3.43
2019-02-08T23:34:44.250Z,3.33
2019-02-08T23:42:15.877Z,4.17
2019-02-08T23:44:11.147Z,3.10
2019-02-08T23:46:51.363Z,2.70
2019-02-08T23:49:19.291Z,2.90
2019-02-08T23:51:50.951Z,5.27
2019-02-08T23:54:18.919Z,3.23
2019-02-08T23:56:46.638Z,5.57
2019-02-08T23:59:14.482Z,4.87
